Potsdam, New York
Current Conditions -  °F | °C
As of 6:53 PM on Friday 28 Nov 2014 (Local Time) from KMSS Reporting Station
Clear Clear  
Wind Chill: 17°   Ceiling: Unl
Heat Index: 17°   Visibility: 10mi
Dew Point: 11°   Wind: 3mph
Humidity: 77%   Direction: 210°SSW
Pressure: 30.21"   Gusts: NA
Location:  44.67°N, 74.98°W
Report Text: KMSS 282353Z AUTO 21003KT 10SM CLR M08/M12 A3021 RMK AO2 SLP237 60000 T10831117 11039 21089 51009
Loading
Personal Weather Stations






























Interactive Weather Map New forecast layout! Learn more

10-Day Weather Forecast

Advertisements
Track Severe Weather on mobile